createdAt,value
2022-12-22T00:00:07.253Z,12.77
2022-12-22T00:02:58.971Z,12.74
2022-12-22T00:05:45.006Z,12.77
2022-12-22T00:08:31.388Z,12.77
2022-12-22T00:11:18.975Z,12.74
2022-12-22T00:14:05.250Z,12.73
2022-12-22T00:16:54.606Z,12.71
2022-12-22T00:19:41.240Z,12.69
2022-12-22T00:22:38.634Z,12.67
2022-12-22T00:25:25.633Z,12.62
2022-12-22T00:28:11.612Z,12.58
2022-12-22T00:30:57.749Z,12.52
2022-12-22T00:33:43.806Z,12.56
2022-12-22T00:36:31.576Z,12.54
2022-12-22T00:39:17.536Z,12.50
2022-12-22T00:42:03.917Z,12.49
2022-12-22T00:44:50.097Z,12.47
2022-12-22T00:47:53.962Z,12.34
2022-12-22T00:50:46.475Z,12.43
2022-12-22T00:53:33.032Z,12.44
2022-12-22T00:56:19.310Z,12.47
2022-12-22T00:59:05.648Z,12.48
2022-12-22T01:01:52.124Z,12.50
2022-12-22T01:04:38.197Z,12.47
2022-12-22T01:07:23.994Z,12.54
2022-12-22T01:10:11.680Z,12.49
2022-12-22T01:12:59.957Z,12.52
2022-12-22T01:15:47.560Z,12.55
2022-12-22T01:18:34.306Z,12.51
2022-12-22T01:21:20.517Z,12.52
2022-12-22T01:24:06.687Z,12.42
2022-12-22T01:26:52.984Z,12.43
2022-12-22T01:29:39.266Z,12.37
2022-12-22T01:32:27.986Z,12.28
2022-12-22T01:35:14.175Z,12.20
2022-12-22T01:38:00.575Z,12.20
2022-12-22T01:40:47.142Z,12.27
2022-12-22T01:43:45.117Z,12.22
2022-12-22T01:46:45.179Z,12.16
2022-12-22T01:49:37.636Z,12.23
2022-12-22T01:52:25.247Z,12.24
2022-12-22T01:55:12.563Z,12.23
2022-12-22T01:57:58.757Z,12.29
2022-12-22T02:00:45.079Z,12.26
2022-12-22T02:03:39.265Z,12.32
2022-12-22T02:07:00.790Z,12.30
2022-12-22T02:10:08.421Z,12.40
2022-12-22T02:13:17.976Z,12.37
2022-12-22T02:16:08.484Z,12.45
2022-12-22T02:19:08.393Z,12.45
2022-12-22T02:22:22.877Z,12.42
2022-12-22T02:25:18.480Z,12.37
2022-12-22T02:28:08.215Z,12.44
2022-12-22T02:30:55.618Z,12.40
2022-12-22T02:33:42.658Z,12.43
2022-12-22T02:36:43.957Z,12.49
2022-12-22T02:39:35.572Z,12.44
2022-12-22T02:42:24.415Z,12.48
2022-12-22T02:45:19.698Z,12.48
2022-12-22T02:48:33.947Z,12.46
2022-12-22T02:51:25.760Z,12.44
2022-12-22T02:54:13.880Z,12.38
2022-12-22T02:57:00.250Z,12.37
2022-12-22T02:59:46.374Z,12.40
2022-12-22T03:02:32.710Z,12.38
2022-12-22T03:05:18.830Z,12.40
2022-12-22T03:08:08.519Z,12.40
2022-12-22T03:10:54.740Z,12.39
2022-12-22T03:13:40.830Z,12.42
2022-12-22T03:16:26.657Z,12.50
2022-12-22T03:19:12.783Z,12.48
2022-12-22T03:21:59.611Z,12.50
2022-12-22T03:24:45.652Z,12.51
2022-12-22T03:27:13.201Z,12.48
2022-12-22T03:29:40.760Z,12.48
2022-12-22T03:32:08.248Z,12.48
2022-12-22T03:34:35.752Z,12.41
2022-12-22T03:37:03.312Z,12.38
2022-12-22T03:39:30.720Z,12.42
2022-12-22T03:42:17.026Z,12.41
2022-12-22T03:45:03.397Z,12.43
2022-12-22T03:47:32.311Z,12.48
2022-12-22T03:49:59.788Z,12.51
2022-12-22T03:52:27.330Z,12.52
2022-12-22T03:54:54.851Z,12.50
2022-12-22T03:57:22.393Z,12.53
2022-12-22T03:59:49.799Z,12.48
2022-12-22T04:02:17.420Z,12.49
2022-12-22T04:04:44.844Z,12.47
2022-12-22T04:07:12.255Z,12.55
2022-12-22T04:09:59.536Z,12.53
2022-12-22T04:12:45.508Z,12.50
2022-12-22T04:15:13.020Z,12.41
2022-12-22T04:17:40.492Z,12.41
2022-12-22T04:20:08.870Z,12.36
2022-12-22T04:22:36.272Z,12.36
2022-12-22T04:25:04.479Z,12.41
2022-12-22T04:27:31.933Z,12.42
2022-12-22T04:29:59.512Z,12.41
2022-12-22T04:32:27.099Z,12.47
2022-12-22T04:34:54.615Z,12.52
2022-12-22T04:37:22.034Z,12.46
2022-12-22T04:39:49.499Z,12.46
2022-12-22T04:42:16.758Z,12.51
2022-12-22T04:44:44.258Z,12.52
2022-12-22T04:47:11.745Z,12.52
2022-12-22T04:49:39.240Z,12.48
2022-12-22T04:52:06.701Z,12.45
2022-12-22T04:54:34.288Z,12.49
2022-12-22T04:57:01.671Z,12.50
2022-12-22T04:59:29.096Z,12.51
2022-12-22T05:01:56.655Z,12.49
2022-12-22T05:04:24.283Z,12.51
2022-12-22T05:06:51.712Z,12.56
2022-12-22T05:09:19.163Z,12.56
2022-12-22T05:11:46.362Z,12.57
2022-12-22T05:14:13.921Z,12.58
2022-12-22T05:16:41.437Z,12.61
2022-12-22T05:19:09.092Z,12.62
2022-12-22T05:21:36.549Z,12.60
2022-12-22T05:24:04.399Z,12.59
2022-12-22T05:26:31.841Z,12.56
2022-12-22T05:28:59.779Z,12.55
2022-12-22T05:31:27.450Z,12.59
2022-12-22T05:33:54.990Z,12.60
2022-12-22T05:36:22.433Z,12.50
2022-12-22T05:38:49.941Z,12.49
2022-12-22T05:41:17.316Z,12.49
2022-12-22T05:43:44.884Z,12.47
2022-12-22T05:46:12.637Z,12.36
2022-12-22T05:48:40.524Z,12.46
2022-12-22T05:51:09.196Z,12.50
2022-12-22T05:53:38.048Z,12.46
2022-12-22T05:56:06.210Z,12.42
2022-12-22T05:58:35.160Z,12.40
2022-12-22T06:01:02.749Z,12.40
2022-12-22T06:03:31.303Z,12.38
2022-12-22T06:05:59.810Z,12.40
2022-12-22T06:08:27.724Z,12.34
2022-12-22T06:10:57.063Z,12.37
2022-12-22T06:13:25.887Z,12.41
2022-12-22T06:15:53.451Z,12.39
2022-12-22T06:18:21.320Z,12.36
2022-12-22T06:20:51.834Z,12.38
2022-12-22T06:23:19.687Z,12.42
2022-12-22T06:26:07.361Z,12.40
2022-12-22T06:28:34.789Z,12.40
2022-12-22T06:31:02.282Z,12.40
2022-12-22T06:33:29.833Z,12.39
2022-12-22T06:35:59.500Z,12.33
2022-12-22T06:38:28.435Z,12.28
2022-12-22T06:40:56.629Z,12.24
2022-12-22T06:43:24.357Z,12.33
2022-12-22T06:45:51.990Z,12.38
2022-12-22T06:48:20.857Z,12.40
2022-12-22T06:50:48.292Z,12.36
2022-12-22T06:53:16.466Z,12.35
2022-12-22T06:55:44.095Z,12.37
2022-12-22T06:58:11.521Z,12.45
2022-12-22T07:00:38.843Z,12.39
2022-12-22T07:03:06.380Z,12.36
2022-12-22T07:05:34.200Z,12.29
2022-12-22T07:08:08.120Z,12.30
2022-12-22T07:10:55.286Z,12.33
2022-12-22T07:13:24.367Z,12.27
2022-12-22T07:16:00.213Z,12.22
2022-12-22T07:18:31.123Z,12.22
2022-12-22T07:21:01.087Z,12.19
2022-12-22T07:23:29.230Z,12.11
2022-12-22T07:25:57.298Z,12.09
2022-12-22T07:28:25.288Z,12.17
2022-12-22T07:30:53.655Z,12.24
2022-12-22T07:33:21.663Z,12.25
2022-12-22T07:35:49.454Z,12.24
2022-12-22T07:38:16.861Z,12.30
2022-12-22T07:40:47.939Z,12.23
2022-12-22T07:43:19.010Z,12.22
2022-12-22T07:45:46.556Z,12.26
2022-12-22T07:48:32.786Z,12.29
2022-12-22T07:51:05.533Z,12.35
2022-12-22T07:53:34.490Z,12.32
2022-12-22T07:56:03.546Z,12.37
2022-12-22T07:58:31.331Z,12.41
2022-12-22T08:01:01.913Z,12.43
2022-12-22T08:03:29.671Z,12.53
2022-12-22T08:05:57.107Z,12.48
2022-12-22T08:08:24.729Z,12.46
2022-12-22T08:10:52.134Z,12.45
2022-12-22T08:13:20.569Z,12.50
2022-12-22T08:15:48.196Z,12.49
2022-12-22T08:18:15.887Z,12.55
2022-12-22T08:20:49.856Z,12.54
2022-12-22T08:23:17.558Z,12.55
2022-12-22T08:25:48.844Z,12.60
2022-12-22T08:28:18.033Z,12.55
2022-12-22T08:30:46.281Z,12.60
2022-12-22T08:33:14.252Z,12.58
2022-12-22T08:35:42.378Z,12.60
2022-12-22T08:38:12.015Z,12.62
2022-12-22T08:40:39.442Z,12.66
2022-12-22T08:43:10.420Z,12.73
2022-12-22T08:45:38.139Z,12.76
2022-12-22T08:48:05.707Z,12.73
2022-12-22T08:50:33.243Z,12.71
2022-12-22T08:53:14.557Z,12.85
2022-12-22T08:55:56.002Z,12.84
2022-12-22T08:58:23.723Z,12.78
2022-12-22T09:00:51.317Z,12.76
2022-12-22T09:03:18.899Z,12.79
2022-12-22T09:05:46.422Z,12.81
2022-12-22T09:08:13.682Z,12.88
2022-12-22T09:10:43.527Z,12.91
2022-12-22T09:13:11.086Z,12.88
2022-12-22T09:15:38.702Z,12.92
2022-12-22T09:18:06.221Z,12.93
2022-12-22T09:20:33.781Z,12.94
2022-12-22T09:23:01.203Z,12.93
2022-12-22T09:25:28.897Z,12.94
2022-12-22T09:27:56.379Z,12.98
2022-12-22T09:30:24.010Z,12.94
2022-12-22T09:32:51.625Z,13.08
2022-12-22T09:35:19.073Z,12.98
2022-12-22T09:37:46.283Z,13.02
2022-12-22T09:40:14.277Z,12.94
2022-12-22T09:42:41.981Z,12.96
2022-12-22T09:45:20.400Z,12.96
2022-12-22T09:47:53.898Z,13.06
2022-12-22T09:50:26.818Z,13.02
2022-12-22T09:53:02.978Z,13.06
2022-12-22T09:55:41.553Z,13.05
2022-12-22T09:58:30.895Z,12.98
2022-12-22T10:01:23.194Z,13.00
2022-12-22T10:04:05.757Z,13.02
2022-12-22T10:06:59.176Z,13.07
2022-12-22T10:09:49.553Z,13.09
2022-12-22T10:12:20.601Z,13.09
2022-12-22T10:14:50.362Z,13.09
2022-12-22T10:17:33.526Z,13.02
2022-12-22T10:20:21.205Z,13.01
2022-12-22T10:22:50.299Z,12.99
2022-12-22T10:25:39.896Z,13.03
2022-12-22T10:28:22.416Z,13.04
2022-12-22T10:30:50.359Z,13.03
2022-12-22T10:33:19.011Z,12.99
2022-12-22T10:35:50.198Z,13.04
2022-12-22T10:38:38.559Z,13.00
2022-12-22T10:41:19.591Z,12.92
2022-12-22T10:44:21.400Z,12.98
2022-12-22T10:47:17.594Z,12.96
2022-12-22T10:49:48.408Z,13.12
2022-12-22T10:52:30.004Z,13.13
2022-12-22T10:55:25.922Z,13.07
2022-12-22T10:58:09.721Z,13.01
2022-12-22T11:00:38.960Z,12.96
2022-12-22T11:03:12.008Z,13.00
2022-12-22T11:05:39.920Z,12.96
2022-12-22T11:08:18.744Z,12.99
2022-12-22T11:11:10.248Z,13.03
2022-12-22T11:13:53.295Z,13.13
2022-12-22T11:16:36.252Z,12.98
2022-12-22T11:19:37.716Z,12.98
2022-12-22T11:22:31.533Z,12.89
2022-12-22T11:25:11.037Z,13.02
2022-12-22T11:27:55.949Z,13.06
2022-12-22T11:30:45.379Z,13.03
2022-12-22T11:33:25.099Z,13.03
2022-12-22T11:36:01.265Z,13.06
2022-12-22T11:38:40.807Z,13.09
2022-12-22T11:41:33.105Z,13.03
2022-12-22T11:44:11.657Z,13.06
2022-12-22T11:46:49.380Z,13.01
2022-12-22T11:49:53.970Z,12.97
2022-12-22T11:52:52.731Z,13.02
2022-12-22T11:56:01.778Z,13.01
2022-12-22T11:58:42.446Z,13.13
2022-12-22T12:01:31.644Z,13.00
2022-12-22T12:04:13.583Z,13.09
2022-12-22T12:06:53.184Z,13.24
2022-12-22T12:09:46.565Z,13.14
2022-12-22T12:12:35.571Z,13.15
2022-12-22T12:15:11.978Z,13.25
2022-12-22T12:18:01.143Z,13.15
2022-12-22T12:20:49.887Z,13.16
2022-12-22T12:23:37.359Z,13.17
2022-12-22T12:26:15.948Z,13.12
2022-12-22T12:29:05.869Z,13.12
2022-12-22T12:31:53.727Z,13.11
2022-12-22T12:34:23.030Z,13.19
2022-12-22T12:37:02.016Z,13.22
2022-12-22T12:40:00.956Z,13.17
2022-12-22T12:42:38.335Z,13.18
2022-12-22T12:45:32.666Z,13.14
2022-12-22T12:48:22.231Z,13.14
2022-12-22T12:50:54.528Z,13.16
2022-12-22T12:53:26.814Z,13.21
2022-12-22T12:56:06.276Z,13.22
2022-12-22T12:58:40.282Z,13.19
2022-12-22T13:01:29.802Z,13.28
2022-12-22T13:04:05.621Z,13.33
2022-12-22T13:06:53.600Z,13.36
2022-12-22T13:12:34.160Z,13.42
2022-12-22T13:15:02.146Z,13.43
2022-12-22T13:17:52.748Z,13.48
2022-12-22T13:20:31.304Z,13.52
2022-12-22T13:23:01.965Z,13.51
2022-12-22T13:25:58.180Z,13.46
2022-12-22T13:28:27.121Z,13.55
2022-12-22T13:31:20.100Z,13.56
2022-12-22T13:34:03.686Z,13.59
2022-12-22T13:36:31.946Z,13.68
2022-12-22T13:39:12.080Z,13.72
2022-12-22T13:41:41.858Z,13.77
2022-12-22T13:44:29.818Z,13.77
2022-12-22T13:47:03.573Z,13.74
2022-12-22T13:50:06.644Z,13.75
2022-12-22T13:52:21.441Z,13.88
2022-12-22T13:54:49.156Z,13.93
2022-12-22T13:57:22.080Z,13.96
2022-12-22T13:59:51.735Z,13.99
2022-12-22T14:02:21.788Z,13.98
2022-12-22T14:05:08.230Z,13.99
2022-12-22T14:07:36.157Z,14.05
2022-12-22T14:10:07.873Z,14.08
2022-12-22T14:12:42.520Z,14.05
2022-12-22T14:15:18.123Z,14.09
2022-12-22T14:17:52.284Z,14.07
2022-12-22T14:20:40.328Z,14.03
2022-12-22T14:23:31.981Z,14.08
2022-12-22T14:26:01.865Z,14.07
2022-12-22T14:28:42.923Z,14.11
2022-12-22T14:31:13.275Z,14.12
2022-12-22T14:33:55.064Z,14.17
2022-12-22T14:36:23.965Z,14.24
2022-12-22T14:38:57.243Z,14.30
2022-12-22T14:41:43.298Z,14.35
2022-12-22T14:44:22.911Z,14.41
2022-12-22T14:47:12.374Z,14.37
2022-12-22T14:49:47.449Z,14.41
2022-12-22T14:52:45.468Z,14.37
2022-12-22T14:55:34.856Z,14.45
2022-12-22T14:58:05.284Z,14.43
2022-12-22T15:00:34.971Z,14.43
2022-12-22T15:03:27.234Z,14.45
2022-12-22T15:05:55.163Z,14.47
2022-12-22T15:08:43.280Z,14.45
2022-12-22T15:11:13.583Z,14.42
2022-12-22T15:13:41.952Z,14.48
2022-12-22T15:16:15.859Z,14.46
2022-12-22T15:18:44.078Z,14.53
2022-12-22T15:21:17.608Z,14.52
2022-12-22T15:23:45.828Z,14.54
2022-12-22T15:26:13.480Z,14.54
2022-12-22T15:28:41.480Z,14.58
2022-12-22T15:31:16.176Z,14.58
2022-12-22T15:33:45.182Z,14.59
2022-12-22T15:36:14.190Z,14.61
2022-12-22T15:38:42.480Z,14.60
2022-12-22T15:41:09.927Z,14.60
2022-12-22T15:43:57.317Z,14.64
2022-12-22T15:46:25.165Z,14.70
2022-12-22T15:48:53.148Z,14.65
2022-12-22T15:51:24.891Z,14.71
2022-12-22T15:53:53.420Z,14.64
2022-12-22T15:56:24.238Z,14.63
2022-12-22T15:58:52.977Z,14.64
2022-12-22T16:01:20.464Z,14.58
2022-12-22T16:03:48.103Z,14.61
2022-12-22T16:06:17.685Z,14.59
2022-12-22T16:08:53.640Z,14.56
2022-12-22T16:11:21.238Z,14.55
2022-12-22T16:13:50.279Z,14.54
2022-12-22T16:16:18.249Z,14.52
2022-12-22T16:18:45.770Z,14.51
2022-12-22T16:21:20.397Z,14.56
2022-12-22T16:23:50.361Z,14.50
2022-12-22T16:26:20.549Z,14.50
2022-12-22T16:28:48.334Z,14.53
2022-12-22T16:31:22.878Z,14.54
2022-12-22T16:33:50.928Z,14.50
2022-12-22T16:36:18.564Z,14.52
2022-12-22T16:38:47.702Z,14.57
2022-12-22T16:41:33.732Z,14.55
2022-12-22T16:46:46.938Z,14.52
2022-12-22T16:49:24.535Z,14.52
2022-12-22T16:51:55.212Z,14.56
2022-12-22T16:54:22.634Z,14.54
2022-12-22T16:56:51.984Z,14.55
2022-12-22T16:59:19.536Z,14.56
2022-12-22T17:01:57.011Z,14.51
2022-12-22T17:04:28.998Z,14.51
2022-12-22T17:06:59.013Z,14.57
2022-12-22T17:09:33.694Z,14.45
2022-12-22T17:12:01.441Z,14.53
2022-12-22T17:14:33.043Z,14.54
2022-12-22T17:17:00.530Z,14.60
2022-12-22T17:19:28.163Z,14.60
2022-12-22T17:21:59.038Z,14.55
2022-12-22T17:24:28.941Z,14.63
2022-12-22T17:27:05.949Z,14.69
2022-12-22T17:29:35.246Z,14.70
2022-12-22T17:32:02.780Z,14.69
2022-12-22T17:34:31.562Z,14.64
2022-12-22T17:37:00.123Z,14.64
2022-12-22T17:39:27.689Z,14.67
2022-12-22T17:41:57.294Z,14.70
2022-12-22T17:44:26.926Z,14.70
2022-12-22T17:46:54.637Z,14.70
2022-12-22T17:49:22.826Z,14.69
2022-12-22T17:51:50.661Z,14.67
2022-12-22T17:54:23.817Z,14.66
2022-12-22T17:56:52.238Z,14.67
2022-12-22T17:59:19.677Z,14.63
2022-12-22T18:01:47.361Z,14.63
2022-12-22T18:04:15.496Z,14.66
2022-12-22T18:06:43.134Z,14.61
2022-12-22T18:09:21.825Z,14.59
2022-12-22T18:11:49.798Z,14.57
2022-12-22T18:14:18.721Z,14.59
2022-12-22T18:16:46.421Z,14.58
2022-12-22T18:19:14.069Z,14.57
2022-12-22T18:21:41.858Z,14.58
2022-12-22T18:24:16.795Z,14.57
2022-12-22T18:26:44.644Z,14.58
2022-12-22T18:29:16.511Z,14.59
2022-12-22T18:31:44.616Z,14.57
2022-12-22T18:34:12.689Z,14.54
2022-12-22T18:36:42.613Z,14.52
2022-12-22T18:39:18.997Z,14.56
2022-12-22T18:41:46.993Z,14.56
2022-12-22T18:44:18.683Z,14.58
2022-12-22T18:46:46.895Z,14.53
2022-12-22T18:49:14.961Z,14.58
2022-12-22T18:51:44.612Z,14.53
2022-12-22T18:54:31.403Z,14.47
2022-12-22T18:56:59.128Z,14.50
2022-12-22T18:59:28.244Z,14.48
2022-12-22T19:02:04.387Z,14.46
2022-12-22T19:04:32.172Z,14.49
2022-12-22T19:06:59.780Z,14.46
2022-12-22T19:09:27.472Z,14.45
2022-12-22T19:11:55.040Z,14.38
2022-12-22T19:14:22.914Z,14.43
2022-12-22T19:16:50.433Z,14.39
2022-12-22T19:19:19.421Z,14.43
2022-12-22T19:21:48.735Z,14.41
2022-12-22T19:24:16.246Z,14.45
2022-12-22T19:26:43.788Z,14.41
2022-12-22T19:29:13.869Z,14.41
2022-12-22T19:31:43.259Z,14.37
2022-12-22T19:34:18.459Z,14.43
2022-12-22T19:36:46.182Z,14.36
2022-12-22T19:39:13.566Z,14.35
2022-12-22T19:41:48.260Z,14.33
2022-12-22T19:44:28.628Z,14.37
2022-12-22T19:46:59.352Z,14.37
2022-12-22T19:49:27.935Z,14.36
2022-12-22T19:51:56.360Z,14.30
2022-12-22T19:54:24.337Z,14.37
2022-12-22T19:56:55.599Z,14.29
2022-12-22T19:59:38.492Z,14.27
2022-12-22T20:02:36.208Z,14.23
2022-12-22T20:05:05.678Z,14.33
2022-12-22T20:07:37.226Z,14.27
2022-12-22T20:10:05.395Z,14.30
2022-12-22T20:12:35.957Z,14.33
2022-12-22T20:15:14.370Z,14.32
2022-12-22T20:17:42.753Z,14.32
2022-12-22T20:20:14.884Z,14.38
2022-12-22T20:22:52.344Z,14.36
2022-12-22T20:25:23.079Z,14.37
2022-12-22T20:27:51.752Z,14.30
2022-12-22T20:30:25.410Z,14.38
2022-12-22T20:32:54.592Z,14.37
2022-12-22T20:35:23.484Z,14.37
2022-12-22T20:37:51.019Z,14.36
2022-12-22T20:40:24.116Z,14.36
2022-12-22T20:42:51.738Z,14.32
2022-12-22T20:45:21.900Z,14.29
2022-12-22T20:47:50.625Z,14.30
2022-12-22T20:50:27.683Z,14.27
2022-12-22T20:52:55.686Z,14.32
2022-12-22T20:55:26.532Z,14.32
2022-12-22T20:57:54.582Z,14.30
2022-12-22T21:00:28.684Z,14.24
2022-12-22T21:02:56.785Z,14.25
2022-12-22T21:05:24.363Z,14.28
2022-12-22T21:07:51.872Z,14.27
2022-12-22T21:10:26.078Z,14.23
2022-12-22T21:12:54.320Z,14.25
2022-12-22T21:15:28.311Z,14.19
2022-12-22T21:17:58.449Z,14.16
2022-12-22T21:20:29.331Z,14.20
2022-12-22T21:22:57.066Z,14.19
2022-12-22T21:25:25.089Z,14.14
2022-12-22T21:27:53.016Z,14.20
2022-12-22T21:30:26.512Z,14.17
2022-12-22T21:32:54.767Z,14.14
2022-12-22T21:35:27.283Z,14.06
2022-12-22T21:37:56.029Z,14.04
2022-12-22T21:40:25.993Z,14.02
2022-12-22T21:42:54.353Z,14.05
2022-12-22T21:45:25.683Z,13.99
2022-12-22T21:47:53.297Z,14.03
2022-12-22T21:50:27.484Z,14.04
2022-12-22T21:52:55.206Z,14.12
2022-12-22T21:55:35.013Z,14.01
2022-12-22T21:58:04.209Z,14.07
2022-12-22T22:00:32.840Z,14.06
2022-12-22T22:03:02.472Z,14.05
2022-12-22T22:05:36.134Z,14.04
2022-12-22T22:08:06.481Z,13.96
2022-12-22T22:10:36.883Z,13.93
2022-12-22T22:13:04.708Z,14.07
2022-12-22T22:15:32.335Z,14.14
2022-12-22T22:18:06.438Z,14.17
2022-12-22T22:20:35.251Z,14.08
2022-12-22T22:23:02.657Z,14.05
2022-12-22T22:25:30.177Z,14.10
2022-12-22T22:28:00.755Z,14.07
2022-12-22T22:30:28.334Z,14.05
2022-12-22T22:32:57.098Z,14.01
2022-12-22T22:35:27.031Z,14.04
2022-12-22T22:37:55.167Z,14.01
2022-12-22T22:40:23.590Z,14.00
2022-12-22T22:42:51.269Z,13.97
2022-12-22T22:45:24.099Z,14.04
2022-12-22T22:47:53.013Z,13.96
2022-12-22T22:50:22.082Z,13.99
2022-12-22T22:52:49.675Z,13.98
2022-12-22T22:55:17.341Z,13.94
2022-12-22T22:57:44.821Z,13.90
2022-12-22T23:00:15.742Z,13.87
2022-12-22T23:02:43.662Z,13.86
2022-12-22T23:05:15.504Z,13.87
2022-12-22T23:07:48.120Z,13.81
2022-12-22T23:10:15.794Z,13.83
2022-12-22T23:12:43.495Z,13.85
2022-12-22T23:15:11.331Z,13.90
2022-12-22T23:17:39.179Z,13.95
2022-12-22T23:20:07.268Z,13.98
2022-12-22T23:22:35.683Z,14.01
2022-12-22T23:25:03.420Z,13.94
2022-12-22T23:27:32.303Z,13.87
2022-12-22T23:29:59.793Z,13.94
2022-12-22T23:32:27.291Z,13.92
2022-12-22T23:34:54.767Z,13.92
2022-12-22T23:37:22.236Z,13.88
2022-12-22T23:39:49.642Z,13.94
2022-12-22T23:42:17.272Z,13.98
2022-12-22T23:44:44.694Z,13.99
2022-12-22T23:47:12.409Z,14.01
2022-12-22T23:49:39.823Z,14.04
2022-12-22T23:52:07.340Z,14.04
2022-12-22T23:54:34.960Z,14.02
2022-12-22T23:57:02.424Z,13.96
2022-12-22T23:59:29.763Z,13.85
